createdAt,value
2023-04-20T00:01:08.261Z,1.53
2023-04-20T00:03:19.026Z,1.67
2023-04-20T00:05:28.568Z,1.40
2023-04-20T00:07:38.835Z,1.33
2023-04-20T00:09:48.079Z,1.30
2023-04-20T00:11:56.924Z,1.23
2023-04-20T00:14:05.923Z,1.10
2023-04-20T00:16:16.720Z,1.57
2023-04-20T00:18:25.830Z,1.17
2023-04-20T00:20:35.308Z,1.17
2023-04-20T00:22:44.466Z,1.50
2023-04-20T00:24:53.230Z,1.30
2023-04-20T00:27:02.809Z,1.03
2023-04-20T00:29:11.614Z,1.40
2023-04-20T00:31:23.194Z,1.20
2023-04-20T00:33:32.333Z,1.50
2023-04-20T00:35:41.193Z,1.10
2023-04-20T00:37:50.622Z,1.10
2023-04-20T00:39:59.605Z,1.37
2023-04-20T00:42:09.280Z,1.30
2023-04-20T00:44:17.900Z,1.30
2023-04-20T00:46:28.377Z,1.30
2023-04-20T00:48:37.656Z,1.20
2023-04-20T00:50:47.142Z,1.60
2023-04-20T00:52:56.209Z,1.30
2023-04-20T00:55:05.774Z,1.60
2023-04-20T00:57:16.029Z,1.53
2023-04-20T00:59:24.968Z,1.63
2023-04-20T01:01:36.035Z,1.50
2023-04-20T01:03:45.610Z,1.20
2023-04-20T01:05:55.046Z,1.30
2023-04-20T01:08:03.662Z,1.50
2023-04-20T01:10:12.588Z,1.20
2023-04-20T01:12:21.725Z,1.40
2023-04-20T01:14:31.000Z,1.40
2023-04-20T01:16:41.511Z,1.37
2023-04-20T01:18:51.297Z,1.30
2023-04-20T01:20:59.973Z,1.30
2023-04-20T01:23:11.004Z,1.30
2023-04-20T01:25:20.496Z,1.33
2023-04-20T01:27:29.617Z,1.37
2023-04-20T01:29:38.749Z,1.40
2023-04-20T01:31:48.884Z,1.50
2023-04-20T01:33:57.834Z,1.30
2023-04-20T01:36:06.889Z,1.40
2023-04-20T01:38:21.590Z,1.30
2023-04-20T01:40:30.781Z,1.20
2023-04-20T01:42:39.674Z,1.50
2023-04-20T01:44:48.626Z,1.40
2023-04-20T01:46:57.378Z,1.33
2023-04-20T01:49:06.531Z,1.57
2023-04-20T01:51:15.174Z,1.17
2023-04-20T01:53:26.491Z,1.20
2023-04-20T01:55:36.477Z,1.30
2023-04-20T01:57:46.254Z,1.30
2023-04-20T01:59:54.957Z,1.47
2023-04-20T02:02:04.484Z,1.20
2023-04-20T02:04:13.302Z,1.30
2023-04-20T02:06:22.213Z,1.20
2023-04-20T02:08:32.750Z,1.43
2023-04-20T02:10:41.409Z,1.30
2023-04-20T02:12:50.380Z,1.57
2023-04-20T02:14:59.100Z,1.43
2023-04-20T02:17:08.572Z,1.23
2023-04-20T02:19:17.820Z,1.20
2023-04-20T02:21:26.807Z,1.37
2023-04-20T02:23:37.316Z,1.60
2023-04-20T02:25:46.160Z,1.70
2023-04-20T02:27:55.100Z,1.77
2023-04-20T02:30:04.170Z,1.50
2023-04-20T02:32:12.813Z,1.70
2023-04-20T02:34:21.677Z,1.50
2023-04-20T02:36:31.229Z,1.10
2023-04-20T02:38:41.654Z,1.30
2023-04-20T02:40:50.749Z,1.10
2023-04-20T02:42:59.361Z,2.97
2023-04-20T02:45:09.234Z,1.63
2023-04-20T02:47:17.879Z,1.40
2023-04-20T02:49:26.826Z,1.40
2023-04-20T02:51:35.745Z,1.07
2023-04-20T02:53:45.886Z,1.57
2023-04-20T02:55:55.610Z,1.50
2023-04-20T02:58:04.624Z,1.30
2023-04-20T03:00:14.890Z,1.07
2023-04-20T03:02:23.606Z,1.23
2023-04-20T03:04:33.057Z,1.63
2023-04-20T03:06:42.858Z,1.20
2023-04-20T03:08:53.235Z,1.40
2023-04-20T03:11:01.878Z,1.23
2023-04-20T03:13:10.946Z,1.50
2023-04-20T03:15:19.993Z,1.60
2023-04-20T03:17:28.699Z,1.30
2023-04-20T03:19:37.822Z,1.10
2023-04-20T03:21:47.415Z,1.37
2023-04-20T03:23:57.867Z,1.33
2023-04-20T03:26:06.609Z,1.23
2023-04-20T03:28:16.330Z,1.10
2023-04-20T03:30:25.164Z,1.20
2023-04-20T03:32:34.486Z,1.33
2023-04-20T03:34:43.226Z,1.30
2023-04-20T03:36:53.545Z,1.20
2023-04-20T03:39:04.575Z,1.20
2023-04-20T03:41:13.485Z,1.23
2023-04-20T03:43:23.008Z,1.40
2023-04-20T03:45:31.666Z,1.70
2023-04-20T03:47:40.781Z,1.70
2023-04-20T03:49:49.708Z,1.70
2023-04-20T03:51:58.449Z,2.00
2023-04-20T03:54:09.182Z,1.40
2023-04-20T03:56:18.476Z,1.83
2023-04-20T03:58:27.414Z,1.87
2023-04-20T04:00:36.335Z,1.83
2023-04-20T04:02:46.006Z,1.70
2023-04-20T04:04:54.834Z,1.63
2023-04-20T04:07:04.646Z,1.43
2023-04-20T04:09:14.804Z,1.60
2023-04-20T04:11:25.943Z,1.50
2023-04-20T04:13:35.129Z,1.33
2023-04-20T04:15:44.447Z,1.37
2023-04-20T04:17:53.466Z,1.67
2023-04-20T04:20:02.459Z,1.57
2023-04-20T04:22:11.396Z,1.30
2023-04-20T04:24:21.879Z,1.70
2023-04-20T04:26:31.944Z,1.63
2023-04-20T04:28:40.860Z,2.03
2023-04-20T04:30:49.758Z,1.77
2023-04-20T04:32:59.974Z,2.10
2023-04-20T04:35:10.181Z,1.83
2023-04-20T04:37:19.270Z,1.60
2023-04-20T04:39:30.007Z,1.63
2023-04-20T04:41:38.802Z,1.77
2023-04-20T04:43:47.749Z,1.60
2023-04-20T04:45:58.490Z,1.80
2023-04-20T04:48:09.042Z,1.80
2023-04-20T04:50:17.975Z,1.87
2023-04-20T04:52:28.776Z,1.63
2023-04-20T04:54:39.306Z,1.53
2023-04-20T04:56:48.070Z,1.70
2023-04-20T04:58:57.079Z,1.47
2023-04-20T05:01:06.018Z,1.97
2023-04-20T05:03:15.152Z,1.53
2023-04-20T05:05:25.666Z,1.73
2023-04-20T05:07:34.461Z,1.47
2023-04-20T05:09:45.634Z,1.70
2023-04-20T05:11:54.750Z,1.70
2023-04-20T05:14:03.884Z,1.73
2023-04-20T05:16:13.013Z,1.60
2023-04-20T05:18:22.090Z,1.90
2023-04-20T05:20:31.494Z,1.63
2023-04-20T05:22:40.490Z,1.57
2023-04-20T05:24:51.210Z,1.73
2023-04-20T05:27:00.862Z,1.80
2023-04-20T05:29:09.691Z,2.27
2023-04-20T05:31:18.336Z,1.70
2023-04-20T05:33:27.429Z,2.10
2023-04-20T05:35:36.359Z,2.00
2023-04-20T05:37:45.102Z,1.60
2023-04-20T05:39:56.126Z,1.77
2023-04-20T05:42:04.844Z,2.03
2023-04-20T05:44:13.664Z,1.80
2023-04-20T05:46:22.911Z,1.87
2023-04-20T05:48:31.818Z,1.50
2023-04-20T05:50:40.675Z,1.20
2023-04-20T05:52:49.298Z,1.27
2023-04-20T05:55:01.097Z,2.03
2023-04-20T05:57:10.389Z,1.30
2023-04-20T05:59:19.474Z,1.00
2023-04-20T06:01:28.317Z,1.03
2023-04-20T06:03:37.438Z,1.27
2023-04-20T06:05:46.303Z,1.20
2023-04-20T06:07:55.042Z,1.80
2023-04-20T06:10:06.408Z,1.20
2023-04-20T06:12:15.249Z,1.50
2023-04-20T06:14:24.509Z,1.30
2023-04-20T06:16:33.210Z,1.10
2023-04-20T06:18:41.921Z,1.10
2023-04-20T06:20:50.651Z,1.03
2023-04-20T06:22:59.528Z,1.20
2023-04-20T06:25:10.740Z,1.13
2023-04-20T06:27:19.550Z,1.30
2023-04-20T06:29:28.577Z,1.50
2023-04-20T06:31:37.505Z,1.00
2023-04-20T06:33:46.421Z,1.60
2023-04-20T06:35:57.206Z,1.33
2023-04-20T06:38:06.327Z,1.50
2023-04-20T06:40:16.787Z,1.10
2023-04-20T06:42:25.601Z,1.20
2023-04-20T06:44:34.628Z,1.00
2023-04-20T06:46:44.377Z,1.20
2023-04-20T06:48:53.049Z,0.90
2023-04-20T06:51:02.038Z,1.20
2023-04-20T06:53:10.630Z,1.40
2023-04-20T06:55:21.374Z,1.10
2023-04-20T06:57:30.052Z,1.10
2023-04-20T06:59:39.231Z,1.43
2023-04-20T07:01:47.787Z,1.20
2023-04-20T07:03:56.557Z,1.00
2023-04-20T07:06:05.305Z,1.10
2023-04-20T07:08:16.156Z,1.20
2023-04-20T07:10:26.496Z,1.43
2023-04-20T07:12:36.905Z,1.20
2023-04-20T07:14:45.914Z,1.07
2023-04-20T07:16:54.850Z,0.80
2023-04-20T07:19:04.001Z,0.90
2023-04-20T07:21:13.262Z,0.83
2023-04-20T07:23:22.134Z,1.10
2023-04-20T07:25:33.066Z,0.90
2023-04-20T07:27:42.874Z,1.20
2023-04-20T07:29:52.007Z,1.13
2023-04-20T07:32:01.513Z,1.07
2023-04-20T07:34:11.286Z,1.00
2023-04-20T07:36:21.912Z,0.80
2023-04-20T07:38:31.090Z,0.70
2023-04-20T07:40:41.356Z,0.60
2023-04-20T07:42:50.106Z,0.60
2023-04-20T07:44:58.778Z,0.83
2023-04-20T07:47:07.752Z,0.80
2023-04-20T07:49:16.727Z,0.67
2023-04-20T07:51:26.554Z,0.73
2023-04-20T07:53:35.784Z,0.77
2023-04-20T07:55:46.052Z,0.77
2023-04-20T07:57:54.934Z,0.90
2023-04-20T08:00:05.704Z,0.70
2023-04-20T08:02:15.018Z,0.63
2023-04-20T08:04:23.965Z,0.80
2023-04-20T08:06:33.763Z,0.80
2023-04-20T08:08:42.872Z,0.93
2023-04-20T08:10:53.302Z,0.90
2023-04-20T08:13:02.351Z,0.80
2023-04-20T08:15:11.790Z,0.80
2023-04-20T08:17:20.908Z,0.80
2023-04-20T08:19:29.680Z,1.00
2023-04-20T08:21:38.938Z,1.67
2023-04-20T08:23:47.529Z,0.80
2023-04-20T08:25:58.207Z,0.80
2023-04-20T08:28:11.886Z,0.80
2023-04-20T08:30:24.641Z,0.80
2023-04-20T08:32:33.630Z,1.00
2023-04-20T08:34:42.853Z,0.73
2023-04-20T08:36:52.178Z,0.80
2023-04-20T08:39:10.167Z,0.93
2023-04-20T08:41:20.737Z,0.93
2023-04-20T08:43:29.359Z,0.90
2023-04-20T08:45:38.452Z,0.80
2023-04-20T08:47:48.072Z,0.80
2023-04-20T08:49:58.243Z,0.80
2023-04-20T08:52:07.361Z,0.83
2023-04-20T08:54:16.932Z,0.80
2023-04-20T08:56:36.556Z,0.83
2023-04-20T08:58:45.475Z,1.00
2023-04-20T09:00:54.470Z,0.83
2023-04-20T09:03:03.366Z,0.90
2023-04-20T09:05:12.435Z,1.97
2023-04-20T09:07:22.077Z,1.10
2023-04-20T09:09:30.957Z,0.80
2023-04-20T09:11:42.300Z,0.90
2023-04-20T09:14:00.830Z,0.80
2023-04-20T09:16:13.663Z,1.00
2023-04-20T09:18:23.743Z,1.10
2023-04-20T09:20:34.815Z,0.90
2023-04-20T09:22:43.781Z,0.87
2023-04-20T09:24:52.826Z,1.30
2023-04-20T09:27:03.712Z,0.87
2023-04-20T09:29:18.848Z,1.07
2023-04-20T09:31:28.605Z,0.70
2023-04-20T09:33:37.797Z,0.83
2023-04-20T09:35:47.472Z,0.80
2023-04-20T09:37:56.489Z,0.80
2023-04-20T09:40:06.044Z,0.70
2023-04-20T09:42:16.810Z,0.80
2023-04-20T09:44:25.632Z,1.10
2023-04-20T09:46:35.515Z,0.80
2023-04-20T09:48:44.781Z,1.00
2023-04-20T09:50:53.940Z,1.03
2023-04-20T09:53:02.653Z,0.70
2023-04-20T09:55:12.402Z,0.80
2023-04-20T09:57:23.583Z,0.90
2023-04-20T09:59:35.656Z,0.80
2023-04-20T10:01:44.173Z,0.90
2023-04-20T10:03:54.291Z,0.90
2023-04-20T10:06:03.820Z,0.80
2023-04-20T10:08:12.864Z,1.10
2023-04-20T10:10:22.898Z,0.80
2023-04-20T10:12:33.981Z,0.90
2023-04-20T10:14:42.609Z,0.80
2023-04-20T10:17:01.695Z,0.90
2023-04-20T10:19:10.613Z,0.80
2023-04-20T10:21:21.803Z,0.80
2023-04-20T10:23:30.710Z,0.80
2023-04-20T10:25:39.996Z,0.93
2023-04-20T10:27:57.590Z,0.80
2023-04-20T10:30:12.384Z,0.97
2023-04-20T10:32:24.697Z,0.80
2023-04-20T10:34:33.981Z,0.90
2023-04-20T10:36:42.958Z,0.80
2023-04-20T10:38:52.225Z,0.90
2023-04-20T10:41:08.573Z,0.80
2023-04-20T10:43:22.839Z,1.47
2023-04-20T10:45:38.726Z,0.80
2023-04-20T10:47:47.524Z,1.00
2023-04-20T10:49:56.531Z,0.90
2023-04-20T10:52:05.836Z,1.00
2023-04-20T10:54:15.395Z,0.90
2023-04-20T10:56:26.507Z,0.90
2023-04-20T10:58:37.339Z,0.83
2023-04-20T11:00:46.435Z,0.90
2023-04-20T11:02:56.518Z,1.00
2023-04-20T11:05:12.816Z,0.90
2023-04-20T11:07:21.956Z,0.80
2023-04-20T11:09:31.882Z,1.00
2023-04-20T11:11:40.926Z,0.90
2023-04-20T11:13:51.610Z,0.73
2023-04-20T11:16:00.450Z,0.90
2023-04-20T11:18:10.384Z,1.20
2023-04-20T11:35:19.469Z,1.00
2023-04-20T11:37:28.473Z,0.93
2023-04-20T11:39:36.972Z,1.20
2023-04-20T11:41:45.508Z,1.00
2023-04-20T11:43:54.721Z,1.10
2023-04-20T11:46:04.403Z,1.10
2023-04-20T11:48:13.351Z,1.10
2023-04-20T11:50:25.884Z,0.90
2023-04-20T11:52:34.464Z,1.20
2023-04-20T11:54:43.037Z,1.57
2023-04-20T11:56:51.621Z,1.30
2023-04-20T11:59:00.141Z,1.10
2023-04-20T12:01:08.580Z,0.90
2023-04-20T12:03:17.363Z,0.80
2023-04-20T12:05:27.485Z,1.10
2023-04-20T12:07:36.524Z,0.70
2023-04-20T12:09:45.012Z,0.90
2023-04-20T12:11:53.517Z,1.20
2023-04-20T12:14:02.100Z,0.90
2023-04-20T12:16:10.679Z,1.00
2023-04-20T12:18:19.381Z,1.03
2023-04-20T12:20:29.356Z,0.97
2023-04-20T12:22:41.021Z,0.90
2023-04-20T12:24:49.513Z,1.00
2023-04-20T12:26:58.170Z,0.70
2023-04-20T12:29:07.219Z,1.50
2023-04-20T12:31:16.020Z,1.07
2023-04-20T12:33:24.673Z,0.90
2023-04-20T12:35:34.511Z,1.07
2023-04-20T12:37:43.074Z,0.80
2023-04-20T12:39:51.712Z,1.00
2023-04-20T12:42:00.278Z,0.90
2023-04-20T12:44:11.320Z,1.00
2023-04-20T12:46:20.238Z,0.93
2023-04-20T12:48:28.764Z,1.00
2023-04-20T12:50:39.087Z,1.43
2023-04-20T12:52:47.840Z,1.17
2023-04-20T12:54:56.390Z,1.00
2023-04-20T12:57:04.983Z,1.33
2023-04-20T12:59:14.380Z,1.07
2023-04-20T13:01:23.022Z,1.17
2023-04-20T13:03:32.106Z,1.13
2023-04-20T13:05:44.496Z,1.20
2023-04-20T13:07:53.022Z,1.23
2023-04-20T13:10:02.114Z,1.00
2023-04-20T13:12:10.934Z,1.40
2023-04-20T13:14:19.756Z,1.00
2023-04-20T13:16:29.312Z,1.07
2023-04-20T13:18:37.914Z,1.10
2023-04-20T13:20:48.913Z,1.00
2023-04-20T13:22:58.495Z,1.00
2023-04-20T13:25:07.551Z,0.97
2023-04-20T13:27:16.234Z,1.00
2023-04-20T13:29:24.886Z,1.50
2023-04-20T13:31:33.565Z,1.10
2023-04-20T13:33:42.358Z,1.10
2023-04-20T13:35:52.375Z,1.00
2023-04-20T13:38:00.880Z,1.20
2023-04-20T13:40:10.170Z,1.00
2023-04-20T13:42:18.724Z,1.00
2023-04-20T13:44:27.258Z,1.17
2023-04-20T13:46:36.041Z,1.00
2023-04-20T13:48:44.539Z,0.90
2023-04-20T13:50:55.245Z,1.13
2023-04-20T13:53:03.886Z,1.00
2023-04-20T13:55:12.995Z,0.80
2023-04-20T13:57:21.950Z,1.00
2023-04-20T13:59:31.368Z,0.90
2023-04-20T14:01:40.093Z,1.00
2023-04-20T14:03:48.745Z,1.00
2023-04-20T14:05:59.333Z,1.10
2023-04-20T14:08:07.992Z,1.10
2023-04-20T14:10:16.554Z,1.27
2023-04-20T14:12:26.808Z,1.10
2023-04-20T14:14:35.525Z,1.10
2023-04-20T14:16:47.164Z,1.00
2023-04-20T14:18:56.315Z,1.33
2023-04-20T14:21:06.444Z,1.10
2023-04-20T14:23:15.052Z,1.20
2023-04-20T14:25:23.603Z,1.13
2023-04-20T14:27:32.398Z,1.20
2023-04-20T14:29:40.977Z,1.50
2023-04-20T14:31:49.925Z,1.10
2023-04-20T14:33:58.523Z,1.17
2023-04-20T14:36:08.972Z,1.17
2023-04-20T14:38:17.401Z,1.30
2023-04-20T14:40:26.232Z,1.13
2023-04-20T14:42:35.450Z,1.30
2023-04-20T14:44:43.952Z,1.27
2023-04-20T14:46:52.473Z,1.00
2023-04-20T14:49:01.037Z,1.10
2023-04-20T14:51:10.958Z,1.17
2023-04-20T14:53:19.930Z,1.07
2023-04-20T14:55:28.830Z,1.20
2023-04-20T14:57:37.332Z,1.37
2023-04-20T14:59:45.788Z,1.83
2023-04-20T15:02:02.348Z,1.20
2023-04-20T15:04:12.337Z,1.30
2023-04-20T15:06:22.577Z,1.57
2023-04-20T15:08:31.572Z,1.20
2023-04-20T15:10:40.206Z,1.07
2023-04-20T15:12:49.299Z,1.00
2023-04-20T15:14:57.800Z,1.23
2023-04-20T15:17:06.237Z,1.03
2023-04-20T15:19:14.684Z,1.17
2023-04-20T15:21:25.185Z,1.30
2023-04-20T15:23:33.933Z,1.20
2023-04-20T15:25:42.774Z,1.30
2023-04-20T15:27:51.378Z,1.00
2023-04-20T15:29:59.909Z,1.20
2023-04-20T15:32:08.746Z,1.20
2023-04-20T15:34:17.962Z,1.10
2023-04-20T15:36:28.651Z,1.10
2023-04-20T15:38:37.087Z,1.00
2023-04-20T15:40:46.678Z,1.10
2023-04-20T15:42:55.831Z,1.70
2023-04-20T15:45:04.494Z,1.00
2023-04-20T15:47:13.156Z,1.00
2023-04-20T15:49:21.904Z,1.70
2023-04-20T15:51:31.794Z,1.10
2023-04-20T15:53:40.351Z,1.30
2023-04-20T15:55:48.890Z,1.03
2023-04-20T15:58:00.359Z,1.40
2023-04-20T16:00:09.816Z,1.03
2023-04-20T16:02:18.448Z,1.17
2023-04-20T16:04:27.127Z,1.37
2023-04-20T16:06:37.291Z,1.20
2023-04-20T16:08:47.417Z,1.27
2023-04-20T16:10:56.073Z,1.10
2023-04-20T16:13:05.237Z,1.13
2023-04-20T16:15:14.368Z,1.20
2023-04-20T16:17:22.841Z,1.20
2023-04-20T16:19:32.125Z,0.90
2023-04-20T16:21:42.259Z,1.00
2023-04-20T16:23:53.679Z,0.93
2023-04-20T16:26:02.274Z,0.97
2023-04-20T16:28:11.240Z,1.10
2023-04-20T16:30:19.769Z,1.20
2023-04-20T16:32:28.444Z,1.13
2023-04-20T16:34:36.979Z,1.33
2023-04-20T16:36:47.016Z,0.93
2023-04-20T16:38:55.592Z,1.03
2023-04-20T16:41:04.812Z,1.07
2023-04-20T16:43:13.305Z,1.00
2023-04-20T16:45:21.775Z,1.20
2023-04-20T16:47:30.463Z,1.20
2023-04-20T16:49:39.003Z,1.30
2023-04-20T16:51:49.194Z,1.20
2023-04-20T16:53:57.759Z,1.17
2023-04-20T16:56:06.537Z,1.23
2023-04-20T16:58:15.015Z,1.00
2023-04-20T17:00:23.649Z,1.60
2023-04-20T17:02:34.388Z,1.00
2023-04-20T17:04:43.066Z,1.10
2023-04-20T17:06:53.093Z,1.13
2023-04-20T17:09:06.943Z,1.20
2023-04-20T17:11:16.957Z,1.10
2023-04-20T17:13:25.358Z,1.93
2023-04-20T17:15:33.814Z,0.90
2023-04-20T17:17:42.717Z,1.23
2023-04-20T17:19:51.293Z,1.20
2023-04-20T17:22:03.516Z,1.40
2023-04-20T17:24:11.954Z,0.90
2023-04-20T17:26:20.779Z,1.20
2023-04-20T17:28:29.313Z,1.10
2023-04-20T17:30:37.942Z,1.20
2023-04-20T17:32:46.409Z,1.07
2023-04-20T17:34:55.139Z,1.60
2023-04-20T17:37:05.103Z,1.30
2023-04-20T17:39:15.515Z,1.20
2023-04-20T17:41:24.484Z,1.00
2023-04-20T17:43:33.317Z,1.20
2023-04-20T17:45:41.881Z,1.00
2023-04-20T17:47:50.442Z,1.10
2023-04-20T17:49:59.831Z,1.03
2023-04-20T17:52:12.564Z,1.20
2023-04-20T17:54:21.192Z,1.43
2023-04-20T17:56:29.625Z,1.43
2023-04-20T17:58:38.166Z,1.10
2023-04-20T18:00:47.655Z,1.43
2023-04-20T18:02:56.289Z,1.33
2023-04-20T18:05:04.954Z,1.17
2023-04-20T18:07:17.032Z,1.40
2023-04-20T18:09:25.916Z,1.60
2023-04-20T18:11:34.411Z,1.20
2023-04-20T18:13:44.656Z,1.03
2023-04-20T18:15:53.414Z,1.03
2023-04-20T18:18:01.930Z,1.10
2023-04-20T18:20:10.744Z,1.13
2023-04-20T18:22:21.171Z,1.20
2023-04-20T18:24:29.740Z,1.00
2023-04-20T18:26:38.652Z,1.10
2023-04-20T18:28:47.191Z,1.17
2023-04-20T18:30:57.677Z,1.30
2023-04-20T18:33:07.509Z,1.00
2023-04-20T18:35:16.154Z,1.17
2023-04-20T18:37:26.079Z,1.20
2023-04-20T18:39:34.572Z,1.10
2023-04-20T18:41:43.579Z,0.90
2023-04-20T18:43:52.452Z,1.07
2023-04-20T18:46:00.892Z,1.33
2023-04-20T18:48:09.487Z,1.17
2023-04-20T18:50:17.954Z,1.50
2023-04-20T18:52:27.837Z,1.60
2023-04-20T18:54:38.382Z,1.77
2023-04-20T18:56:46.866Z,1.70
2023-04-20T18:58:57.829Z,1.53
2023-04-20T19:01:06.654Z,2.10
2023-04-20T19:03:16.022Z,1.77
2023-04-20T19:05:24.794Z,1.50
2023-04-20T19:07:34.741Z,1.20
2023-04-20T19:09:43.217Z,1.40
2023-04-20T19:11:53.566Z,1.30
2023-04-20T19:14:02.110Z,1.50
2023-04-20T19:16:10.978Z,1.20
2023-04-20T19:18:19.485Z,1.40
2023-04-20T19:20:27.963Z,1.40
2023-04-20T19:22:37.911Z,1.90
2023-04-20T19:24:46.566Z,1.60
2023-04-20T19:26:55.233Z,2.00
2023-04-20T19:29:04.253Z,1.40
2023-04-20T19:31:12.777Z,2.10
2023-04-20T19:33:21.419Z,1.80
2023-04-20T19:35:30.068Z,1.73
2023-04-20T19:37:41.359Z,2.13
2023-04-20T19:39:50.156Z,2.07
2023-04-20T19:41:58.730Z,1.93
2023-04-20T19:44:09.885Z,2.70
2023-04-20T19:46:18.482Z,2.30
2023-04-20T19:48:27.375Z,2.40
2023-04-20T19:50:36.117Z,3.33
2023-04-20T19:52:46.199Z,2.23
2023-04-20T19:54:54.705Z,2.67
2023-04-20T19:57:03.239Z,2.83
2023-04-20T19:59:11.773Z,2.27
2023-04-20T20:01:20.428Z,2.50
2023-04-20T20:03:29.132Z,2.60
2023-04-20T20:05:37.689Z,2.67
2023-04-20T20:07:48.030Z,2.80
2023-04-20T20:09:57.045Z,2.33
2023-04-20T20:12:08.663Z,2.73
2023-04-20T20:14:17.228Z,2.70
2023-04-20T20:16:28.102Z,2.70
2023-04-20T20:18:37.041Z,2.60
2023-04-20T20:20:45.498Z,2.60
2023-04-20T20:22:55.572Z,2.43
2023-04-20T20:25:04.295Z,2.37
2023-04-20T20:27:12.934Z,3.67
2023-04-20T20:29:22.974Z,3.33
2023-04-20T20:31:31.435Z,3.50
2023-04-20T20:33:40.707Z,3.50
2023-04-20T20:35:49.428Z,3.37
2023-04-20T20:37:59.520Z,4.13
2023-04-20T20:40:11.839Z,3.87
2023-04-20T20:42:21.503Z,3.97
2023-04-20T20:44:33.087Z,3.37
2023-04-20T20:46:41.656Z,3.30
2023-04-20T20:48:50.131Z,3.80
2023-04-20T20:50:58.623Z,3.27
2023-04-20T20:53:09.064Z,3.70
2023-04-20T20:55:17.798Z,3.50
2023-04-20T20:57:26.315Z,2.73
2023-04-20T20:59:34.954Z,3.43
2023-04-20T21:01:43.655Z,3.37
2023-04-20T21:03:52.346Z,3.60
2023-04-20T21:06:01.431Z,2.90
2023-04-20T21:08:13.235Z,3.20
2023-04-20T21:10:22.079Z,3.33
2023-04-20T21:12:30.569Z,3.10
2023-04-20T21:14:39.217Z,2.97
2023-04-20T21:16:49.623Z,2.27
2023-04-20T21:19:00.972Z,2.20
2023-04-20T21:21:13.593Z,2.37
2023-04-20T21:23:23.653Z,3.17
2023-04-20T21:25:32.282Z,2.83
2023-04-20T21:27:40.872Z,2.97
2023-04-20T21:29:49.620Z,3.00
2023-04-20T21:31:58.139Z,2.67
2023-04-20T21:34:06.720Z,2.20
2023-04-20T21:36:15.255Z,1.97
2023-04-20T21:38:25.243Z,2.40
2023-04-20T21:40:34.316Z,1.93
2023-04-20T21:42:42.914Z,1.83
2023-04-20T21:44:51.441Z,2.17
2023-04-20T21:47:02.435Z,2.77
2023-04-20T21:49:11.088Z,3.17
2023-04-20T21:51:20.034Z,2.83
2023-04-20T21:53:29.856Z,2.33
2023-04-20T21:55:38.450Z,2.40
2023-04-20T21:57:46.967Z,2.70
2023-04-20T21:59:55.478Z,2.87
2023-04-20T22:02:04.088Z,2.20
2023-04-20T22:04:13.919Z,2.53
2023-04-20T22:06:22.593Z,2.43
2023-04-20T22:08:32.632Z,2.00
2023-04-20T22:10:41.374Z,2.40
2023-04-20T22:12:50.426Z,2.47
2023-04-20T22:14:59.339Z,2.33
2023-04-20T22:17:09.668Z,2.00
2023-04-20T22:19:18.507Z,2.23
2023-04-20T22:21:27.215Z,2.50
2023-04-20T22:23:37.922Z,2.43
2023-04-20T22:25:46.434Z,2.13
2023-04-20T22:27:54.885Z,2.37
2023-04-20T22:30:03.559Z,2.90
2023-04-20T22:32:12.129Z,2.07
2023-04-20T22:34:20.615Z,1.90
2023-04-20T22:36:29.304Z,2.50
2023-04-20T22:38:39.410Z,2.10
2023-04-20T22:40:47.925Z,1.97
2023-04-20T22:42:56.493Z,2.77
2023-04-20T22:45:05.551Z,1.97
2023-04-20T22:47:14.124Z,2.07
2023-04-20T22:49:23.333Z,2.03
2023-04-20T22:51:32.025Z,1.90
2023-04-20T22:53:42.027Z,2.53
2023-04-20T22:55:50.475Z,2.17
2023-04-20T22:57:58.894Z,2.30
2023-04-20T23:00:10.662Z,2.13
2023-04-20T23:02:19.523Z,2.43
2023-04-20T23:04:28.061Z,1.90
2023-04-20T23:06:36.514Z,1.60
2023-04-20T23:08:46.946Z,1.90
2023-04-20T23:10:55.840Z,2.27
2023-04-20T23:13:05.019Z,1.93
2023-04-20T23:15:13.768Z,2.00
2023-04-20T23:17:22.314Z,2.20
2023-04-20T23:19:32.710Z,1.93
2023-04-20T23:21:41.220Z,2.27
2023-04-20T23:23:51.132Z,2.37
2023-04-20T23:25:59.734Z,2.27
2023-04-20T23:28:08.129Z,1.97
2023-04-20T23:30:16.885Z,2.20
2023-04-20T23:32:25.995Z,1.90
2023-04-20T23:34:34.731Z,1.87
2023-04-20T23:36:43.382Z,2.10
2023-04-20T23:38:53.417Z,2.20
2023-04-20T23:41:01.992Z,2.20
2023-04-20T23:43:10.747Z,1.80
2023-04-20T23:45:19.286Z,2.07
2023-04-20T23:47:27.797Z,2.90
2023-04-20T23:49:36.677Z,3.30
2023-04-20T23:51:45.277Z,2.70
2023-04-20T23:53:55.755Z,2.70
2023-04-20T23:56:04.538Z,2.03
2023-04-20T23:58:13.014Z,2.10
